SWA1101 KLAS-KPSP
Flight info
| Callsign | SWA1101 |
|---|---|
| Flight time | N/A |
| Altitude | 26000 |
| Route | RADYR2 BLAQQ ZELMA RDBUL1 |
| Aircraft | B738/M-SADE2E3GIJ4RWZ/LB1D1 |
Departure
| Time | 2026-05-06 22:43 |
|---|---|
| Airport | Harry Reid International Airport (KLAS) |
Arrival
| Time | N/A |
|---|---|
| Airport | Palm Springs International Airport (KPSP) |
| Time | Latitude | Longitude | Altitude | Speed | Heading |
|---|---|---|---|---|---|
| 2026-05-06 22:16 | 36.08245 | -115.15142 | 2148 ft | 0 kts | 44° |
| 2026-05-06 22:31 | 36.08242 | -115.15145 | 2130 ft | 2 kts | 44° |
| 2026-05-06 22:31 | 36.08230 | -115.15160 | 2131 ft | 2 kts | 44° |
| 2026-05-06 22:31 | 36.08219 | -115.15174 | 2132 ft | 2 kts | 45° |
| 2026-05-06 22:31 | 36.08206 | -115.15187 | 2132 ft | 2 kts | 21° |
| 2026-05-06 22:32 | 36.08193 | -115.15189 | 2133 ft | 1 kts | 321° |
| 2026-05-06 22:32 | 36.08188 | -115.15184 | 2134 ft | 0 kts | 311° |
| 2026-05-06 22:35 | 36.08189 | -115.15186 | 2134 ft | 0 kts | 302° |
| 2026-05-06 22:36 | 36.08188 | -115.15189 | 2134 ft | 0 kts | 270° |
| 2026-05-06 22:36 | 36.08185 | -115.15191 | 2134 ft | 0 kts | 239° |
| 2026-05-06 22:36 | 36.08174 | -115.15195 | 2136 ft | 5 kts | 189° |
| 2026-05-06 22:36 | 36.08095 | -115.15205 | 2142 ft | 16 kts | 184° |
| 2026-05-06 22:37 | 36.07983 | -115.15204 | 2148 ft | 16 kts | 179° |
| 2026-05-06 22:37 | 36.07876 | -115.15201 | 2150 ft | 15 kts | 175° |
| 2026-05-06 22:37 | 36.07805 | -115.15125 | 2147 ft | 15 kts | 99° |
| 2026-05-06 22:37 | 36.07798 | -115.14995 | 2144 ft | 15 kts | 94° |
| 2026-05-06 22:38 | 36.07788 | -115.14862 | 2139 ft | 17 kts | 94° |
| 2026-05-06 22:38 | 36.07774 | -115.14667 | 2127 ft | 28 kts | 95° |
| 2026-05-06 22:38 | 36.07758 | -115.14419 | 2118 ft | 29 kts | 95° |
| 2026-05-06 22:38 | 36.07754 | -115.14162 | 2107 ft | 31 kts | 90° |
| 2026-05-06 22:39 | 36.07754 | -115.13900 | 2100 ft | 30 kts | 89° |
| 2026-05-06 22:39 | 36.07751 | -115.13638 | 2089 ft | 31 kts | 96° |
| 2026-05-06 22:39 | 36.07754 | -115.13383 | 2080 ft | 27 kts | 90° |
| 2026-05-06 22:39 | 36.07755 | -115.13141 | 2066 ft | 30 kts | 90° |
| 2026-05-06 22:40 | 36.07754 | -115.12874 | 2054 ft | 32 kts | 90° |
| 2026-05-06 22:40 | 36.07755 | -115.12588 | 2040 ft | 33 kts | 90° |
| 2026-05-06 22:40 | 36.07755 | -115.12399 | 2035 ft | 21 kts | 90° |
| 2026-05-06 22:40 | 36.07749 | -115.12266 | 2030 ft | 3 kts | 116° |
| 2026-05-06 22:41 | 36.07749 | -115.12265 | 2030 ft | 0 kts | 117° |
| 2026-05-06 22:41 | 36.07748 | -115.12264 | 2030 ft | 1 kts | 118° |
| 2026-05-06 22:42 | 36.07719 | -115.12243 | 2034 ft | 9 kts | 170° |
| 2026-05-06 22:42 | 36.07657 | -115.12245 | 2036 ft | 9 kts | 202° |
| 2026-05-06 22:42 | 36.07643 | -115.12315 | 2032 ft | 9 kts | 270° |
| 2026-05-06 22:42 | 36.07642 | -115.12516 | 2040 ft | 58 kts | 270° |
| 2026-05-06 22:43 | 36.07642 | -115.13367 | 2076 ft | 137 kts | 270° |
| 2026-05-06 22:43 | 36.07647 | -115.14814 | 2252 ft | 192 kts | 269° |
| 2026-05-06 22:43 | 36.07647 | -115.16477 | 3427 ft | 185 kts | 270° |
| 2026-05-06 22:43 | 36.07647 | -115.18068 | 4485 ft | 195 kts | 270° |
| 2026-05-06 22:44 | 36.07665 | -115.19850 | 4870 ft | 219 kts | 270° |
| 2026-05-06 22:44 | 36.07525 | -115.21794 | 5166 ft | 239 kts | 259° |
| 2026-05-06 22:44 | 36.07215 | -115.23861 | 5749 ft | 249 kts | 258° |
| 2026-05-06 22:44 | 36.06493 | -115.25847 | 6386 ft | 263 kts | 231° |
| 2026-05-06 22:45 | 36.05000 | -115.27203 | 7041 ft | 276 kts | 200° |
| 2026-05-06 22:45 | 36.03140 | -115.27894 | 7639 ft | 282 kts | 197° |
| 2026-05-06 22:45 | 36.01270 | -115.28610 | 7965 ft | 283 kts | 199° |
| 2026-05-06 22:45 | 35.99404 | -115.29378 | 8015 ft | 284 kts | 198° |
| 2026-05-06 22:46 | 35.97468 | -115.29965 | 8262 ft | 288 kts | 192° |
| 2026-05-06 22:46 | 35.95482 | -115.30436 | 8743 ft | 293 kts | 191° |
| 2026-05-06 22:46 | 35.93483 | -115.30891 | 9016 ft | 290 kts | 191° |
| 2026-05-06 22:46 | 35.91507 | -115.31346 | 9014 ft | 288 kts | 192° |
| 2026-05-06 22:47 | 35.89531 | -115.31811 | 9017 ft | 289 kts | 192° |
| 2026-05-06 22:47 | 35.87556 | -115.32282 | 9030 ft | 289 kts | 192° |
| 2026-05-06 22:47 | 35.85577 | -115.32758 | 9057 ft | 291 kts | 192° |
| 2026-05-06 22:47 | 35.83571 | -115.33247 | 9589 ft | 297 kts | 192° |
| 2026-05-06 22:48 | 35.81542 | -115.33742 | 10540 ft | 296 kts | 192° |
| 2026-05-06 22:48 | 35.79530 | -115.34233 | 11286 ft | 302 kts | 192° |
| 2026-05-06 22:48 | 35.77442 | -115.34744 | 12014 ft | 309 kts | 191° |
| 2026-05-06 22:48 | 35.75291 | -115.35270 | 12868 ft | 312 kts | 191° |
| 2026-05-06 22:49 | 35.73176 | -115.35787 | 13665 ft | 317 kts | 191° |
| 2026-05-06 22:49 | 35.70990 | -115.36322 | 14388 ft | 322 kts | 191° |
| 2026-05-06 22:49 | 35.68785 | -115.36861 | 15163 ft | 324 kts | 191° |
| 2026-05-06 22:49 | 35.66568 | -115.37403 | 15920 ft | 327 kts | 191° |
| 2026-05-06 22:50 | 35.64318 | -115.37953 | 16637 ft | 331 kts | 191° |
| 2026-05-06 22:50 | 35.62048 | -115.38506 | 17406 ft | 334 kts | 190° |
| 2026-05-06 22:50 | 35.59736 | -115.38834 | 18135 ft | 336 kts | 178° |
| 2026-05-06 22:50 | 35.57390 | -115.38680 | 18774 ft | 339 kts | 174° |
| 2026-05-06 22:51 | 35.55015 | -115.38450 | 19179 ft | 344 kts | 174° |
| 2026-05-06 22:51 | 35.52616 | -115.38222 | 19799 ft | 347 kts | 174° |
| 2026-05-06 22:51 | 35.50197 | -115.38019 | 20473 ft | 349 kts | 174° |
| 2026-05-06 22:51 | 35.47758 | -115.37834 | 21110 ft | 353 kts | 174° |
| 2026-05-06 22:52 | 35.45251 | -115.37651 | 21335 ft | 370 kts | 175° |
| 2026-05-06 22:52 | 35.42613 | -115.37461 | 21474 ft | 388 kts | 175° |
| 2026-05-06 22:52 | 35.39857 | -115.37266 | 21604 ft | 405 kts | 175° |
| 2026-05-06 22:52 | 35.37023 | -115.37068 | 21728 ft | 421 kts | 175° |
| 2026-05-06 22:53 | 35.34057 | -115.36861 | 22002 ft | 431 kts | 175° |
| 2026-05-06 22:53 | 35.31004 | -115.36650 | 22506 ft | 435 kts | 175° |
| 2026-05-06 22:53 | 35.28108 | -115.36451 | 23057 ft | 437 kts | 175° |